Time;durP1;ratioP1;P1;durP2;ratioP2;P2;SDS_P1;SDS_P2;PMS_P1;PMS_P2;Temp;Humidity;BMP_temperature;BMP_pressure;BME280_temperature;BME280_humidity;BME280_pressure;Samples;Min_cycle;Max_cycle;Signal;HPM_P1;HPM_P2
2022/06/02 00:00:19;;;;;;;2.08;1.87;;;;;;;17.74;54.27;96539.44;1755994;80;21390;-82
2022/06/02 00:03:13;;;;;;;3.37;2.20;;;;;;;17.61;54.62;96548.77;1754889;80;21087;-82
2022/06/02 00:06:17;;;;;;;4.17;3.10;;;;;;;17.51;55.59;96577.38;1766674;80;21107;-81
2022/06/02 00:09:00;;;;;;;4.55;3.08;;;;;;;17.32;57.20;96590.52;1786099;80;21009;-81
2022/06/02 00:11:48;;;;;;;4.85;4.05;;;;;;;17.03;58.72;96609.60;1777548;80;20957;-81
2022/06/02 00:14:48;;;;;;;6.42;4.03;;;;;;;16.76;59.52;96616.93;1759266;80;20991;-81
2022/06/02 00:17:44;;;;;;;4.87;3.40;;;;;;;16.53;60.73;96631.89;1750094;81;21371;-81
2022/06/02 00:20:35;;;;;;;4.95;3.30;;;;;;;16.27;62.52;96628.95;1756217;80;21477;-81
2022/06/02 00:23:32;;;;;;;5.80;2.67;;;;;;;16.04;63.65;96644.39;1782649;80;21014;-81
2022/06/02 00:26:24;;;;;;;3.25;2.42;;;;;;;15.89;64.52;96636.80;1751006;80;21498;-81
2022/06/02 00:29:00;;;;;;;3.35;2.90;;;;;;;15.82;65.50;96632.10;1775827;80;21020;-82
2022/06/02 00:31:40;;;;;;;2.95;2.60;;;;;;;15.74;66.46;96633.13;1760928;80;21018;-82
2022/06/02 00:34:40;;;;;;;4.85;2.50;;;;;;;15.68;67.08;96634.47;1768093;80;20987;-82
2022/06/02 00:37:23;;;;;;;3.75;2.67;;;;;;;15.59;67.97;96630.76;1772390;80;20968;-82
2022/06/02 00:39:49;;;;;;;3.62;2.77;;;;;;;15.51;68.34;96623.11;1752871;80;21416;-82
2022/06/02 00:42:32;;;;;;;4.33;3.00;;;;;;;15.51;69.13;96636.71;1774104;80;21001;-83
2022/06/02 00:45:12;;;;;;;3.00;2.35;;;;;;;15.50;69.98;96638.53;1748560;81;21002;-82
2022/06/02 00:48:16;;;;;;;2.75;2.47;;;;;;;15.47;70.33;96628.47;1792067;79;21015;-82
2022/06/02 00:51:05;;;;;;;4.28;2.50;;;;;;;15.45;70.80;96619.98;1780756;79;21062;-83
2022/06/02 00:53:42;;;;;;;2.75;2.40;;;;;;;15.41;71.81;96610.95;1775923;79;20942;-84
2022/06/02 00:59:30;;;;;;;3.45;2.92;;;;;;;15.33;72.32;96626.89;1781522;79;20991;-83
2022/06/02 01:01:56;;;;;;;3.25;2.60;;;;;;;15.32;72.61;96625.29;1784339;79;20947;-83
2022/06/02 01:04:21;;;;;;;4.17;2.67;;;;;;;15.30;72.86;96629.93;1780333;79;20950;-83
2022/06/02 01:06:52;;;;;;;3.22;2.33;;;;;;;15.27;73.02;96639.48;1771837;80;20926;-84
2022/06/02 01:09:38;;;;;;;4.83;3.50;;;;;;;15.19;73.21;96647.05;1780595;80;20952;-83
2022/06/02 01:12:22;;;;;;;3.10;2.47;;;;;;;15.18;73.34;96653.30;1785598;80;20973;-84
2022/06/02 01:15:05;;;;;;;3.20;2.27;;;;;;;15.21;73.62;96644.23;1721667;79;20995;-83
2022/06/02 01:17:45;;;;;;;3.55;2.30;;;;;;;15.18;74.03;96649.88;1786845;80;21065;-84
2022/06/02 01:20:25;;;;;;;2.98;2.30;;;;;;;15.11;73.78;96644.63;1787216;80;21289;-84
2022/06/02 01:23:14;;;;;;;3.00;2.20;;;;;;;15.08;74.05;96633.78;1783444;80;21367;-84
2022/06/02 01:26:07;;;;;;;3.37;2.02;;;;;;;15.07;74.57;96636.09;1755813;81;21043;-84
2022/06/02 01:28:55;;;;;;;3.30;2.17;;;;;;;15.05;74.84;96648.08;1759771;80;21368;-85
2022/06/02 01:32:01;;;;;;;3.47;2.37;;;;;;;15.01;75.17;96645.06;1779925;80;21018;-86
2022/06/02 01:34:57;;;;;;;3.33;2.33;;;;;;;14.97;75.12;96637.83;1747548;80;21103;-86
2022/06/02 01:37:49;;;;;;;2.65;2.45;;;;;;;14.88;75.43;96635.91;1778952;80;20909;-85
2022/06/02 01:40:54;;;;;;;2.40;2.15;;;;;;;14.83;75.90;96634.41;1763768;80;21047;-86
2022/06/02 01:43:28;;;;;;;2.92;2.52;;;;;;;14.83;75.87;96626.56;1747081;80;21324;-86
2022/06/02 01:46:08;;;;;;;2.75;2.55;;;;;;;14.80;75.93;96626.95;1767942;80;20979;-85
2022/06/02 01:49:04;;;;;;;5.00;2.52;;;;;;;14.81;76.20;96624.66;1767692;80;21342;-85
2022/06/02 01:51:54;;;;;;;4.85;2.77;;;;;;;14.82;76.37;96626.77;1781492;80;21019;-85
2022/06/02 01:54:42;;;;;;;2.50;2.30;;;;;;;14.79;76.67;96625.34;1766572;80;21020;-85
2022/06/02 01:57:31;;;;;;;3.27;2.40;;;;;;;14.79;76.65;96624.03;1774147;80;21027;-86
2022/06/02 02:00:11;;;;;;;4.12;2.60;;;;;;;14.74;76.69;96637.42;1771712;80;21341;-86
2022/06/02 02:03:22;;;;;;;3.20;2.20;;;;;;;14.70;76.87;96646.98;1776556;80;20968;-86
2022/06/02 02:06:13;;;;;;;3.10;2.42;;;;;;;14.69;77.04;96639.34;1756971;80;21087;-85
2022/06/02 02:09:06;;;;;;;2.83;2.35;;;;;;;14.65;77.42;96644.68;1745890;80;20941;-85
2022/06/02 02:11:48;;;;;;;2.42;2.22;;;;;;;14.58;77.49;96645.16;1758838;80;21058;-86
2022/06/02 02:14:49;;;;;;;4.75;2.52;;;;;;;14.54;77.75;96634.30;1777270;80;21315;-85
2022/06/02 02:17:38;;;;;;;3.85;2.65;;;;;;;14.52;77.78;96636.81;1766885;81;21027;-85
2022/06/02 02:20:29;;;;;;;3.25;1.90;;;;;;;14.47;77.94;96647.85;1757058;80;21443;-85
2022/06/02 02:23:13;;;;;;;2.58;1.90;;;;;;;14.42;78.25;96635.36;1798420;79;20989;-84
2022/06/02 02:26:06;;;;;;;3.42;2.30;;;;;;;14.37;78.21;96621.28;1798557;79;21010;-84
2022/06/02 02:28:46;;;;;;;4.92;2.35;;;;;;;14.38;78.81;96614.55;1763499;79;20968;-83
2022/06/02 02:31:43;;;;;;;2.70;1.87;;;;;;;14.39;79.12;96595.74;1785031;80;21368;-84
2022/06/02 02:34:57;;;;;;;2.70;2.10;;;;;;;14.42;79.19;96607.10;1724343;80;21473;-83
2022/06/02 02:37:54;;;;;;;2.27;1.87;;;;;;;14.41;78.93;96594.53;1765051;80;21314;-84
2022/06/02 02:40:34;;;;;;;2.90;1.70;;;;;;;14.37;79.11;96597.76;1756075;80;21406;-83
2022/06/02 02:43:20;;;;;;;3.00;2.00;;;;;;;14.39;79.38;96586.59;1773436;80;20991;-84
2022/06/02 02:45:54;;;;;;;2.75;2.20;;;;;;;14.41;79.43;96592.42;1767939;80;21074;-84
2022/06/02 02:48:54;;;;;;;2.30;2.10;;;;;;;14.43;79.58;96586.48;1755766;80;21031;-84
2022/06/02 02:51:56;;;;;;;3.47;1.70;;;;;;;14.45;79.68;96592.85;1778516;80;20896;-84
2022/06/02 02:54:57;;;;;;;2.42;1.57;;;;;;;14.42;79.63;96585.69;1759879;80;20973;-84
2022/06/02 02:57:48;;;;;;;2.60;1.72;;;;;;;14.41;79.77;96592.42;1764710;80;20932;-84
2022/06/02 03:00:19;;;;;;;1.60;1.30;;;;;;;14.41;79.79;96590.61;1755664;80;20952;-84
2022/06/02 03:03:10;;;;;;;5.10;1.62;;;;;;;14.38;79.83;96586.30;1782501;80;21332;-84
2022/06/02 03:06:02;;;;;;;1.30;1.20;;;;;;;14.33;79.88;96585.59;1786772;80;20976;-83
2022/06/02 03:09:01;;;;;;;1.40;1.10;;;;;;;14.27;80.17;96585.06;1777315;80;20991;-84
2022/06/02 03:11:57;;;;;;;1.30;0.98;;;;;;;14.21;80.36;96583.27;1777369;80;21021;-84
2022/06/02 03:14:54;;;;;;;1.42;0.80;;;;;;;14.13;80.24;96575.59;1755676;80;20940;-84
2022/06/02 03:17:45;;;;;;;2.87;0.88;;;;;;;14.09;80.47;96575.20;1777085;80;21414;-83
2022/06/02 03:20:19;;;;;;;1.65;0.95;;;;;;;14.05;80.75;96574.50;1770070;80;20999;-83
2022/06/02 03:23:23;;;;;;;2.27;0.80;;;;;;;14.00;80.91;96571.68;1781753;79;20967;-83
2022/06/02 03:26:08;;;;;;;1.50;0.90;;;;;;;13.93;81.17;96574.27;1776161;80;20988;-83
2022/06/02 03:29:01;;;;;;;1.70;0.90;;;;;;;13.86;81.22;96571.34;1756644;80;21311;-83
2022/06/02 03:31:56;;;;;;;0.80;0.80;;;;;;;13.85;81.64;96572.35;1778125;79;20985;-83
2022/06/02 03:34:57;;;;;;;1.55;0.80;;;;;;;13.83;81.93;96572.55;1747893;79;21342;-83
2022/06/02 03:37:42;;;;;;;1.47;0.75;;;;;;;13.79;81.99;96564.78;1781390;79;21022;-83
2022/06/02 03:40:57;;;;;;;2.45;0.80;;;;;;;13.76;82.10;96560.76;1789169;79;21005;-83
2022/06/02 03:43:48;;;;;;;3.50;0.75;;;;;;;13.78;82.30;96563.17;1785677;79;20916;-83
2022/06/02 03:46:28;;;;;;;1.17;0.80;;;;;;;13.76;81.47;96563.87;1766794;80;21093;-83
2022/06/02 03:49:29;;;;;;;1.57;0.62;;;;;;;13.74;81.67;96565.88;1769771;80;21028;-83
2022/06/02 03:52:29;;;;;;;1.30;0.80;;;;;;;13.75;81.53;96580.05;1769027;80;20972;-83
2022/06/02 03:55:17;;;;;;;1.65;0.80;;;;;;;13.77;81.17;96585.07;1773639;80;20985;-83
2022/06/02 03:58:18;;;;;;;0.98;0.82;;;;;;;13.80;81.66;96589.39;1778836;79;21349;-83
2022/06/02 04:00:54;;;;;;;1.07;0.85;;;;;;;13.78;81.79;96594.01;1757944;80;21094;-83
2022/06/02 04:03:53;;;;;;;0.82;0.80;;;;;;;13.76;81.43;96593.41;1776315;79;21059;-83
2022/06/02 04:07:06;;;;;;;2.02;1.15;;;;;;;13.74;80.95;96586.27;1766807;80;20973;-83
2022/06/02 04:10:10;;;;;;;1.55;1.00;;;;;;;13.75;80.56;96583.96;1789179;79;20991;-83
2022/06/02 04:16:35;;;;;;;1.30;0.90;;;;;;;13.85;81.52;96586.72;1729169;80;20961;-83
2022/06/02 04:22:21;;;;;;;2.00;1.10;;;;;;;13.92;82.00;96583.61;1789384;79;20992;-84
2022/06/02 04:25:24;;;;;;;1.45;1.10;;;;;;;13.95;81.89;96583.20;1788531;79;20962;-83
2022/06/02 04:28:24;;;;;;;1.80;1.45;;;;;;;13.97;81.56;96589.03;1788966;79;20991;-84
2022/06/02 04:31:01;;;;;;;1.65;1.40;;;;;;;13.98;81.06;96586.72;1765153;79;21057;-83
2022/06/02 04:33:36;;;;;;;3.35;1.50;;;;;;;14.01;81.26;96594.99;1784772;80;20963;-84
2022/06/02 04:36:27;;;;;;;1.45;0.98;;;;;;;14.02;82.21;96601.02;1772952;80;21021;-84
2022/06/02 04:39:14;;;;;;;1.37;1.10;;;;;;;13.98;80.86;96597.17;1782046;79;20980;-84
2022/06/02 04:41:54;;;;;;;2.35;1.10;;;;;;;13.98;80.86;96597.17;1774859;80;21080;-84
2022/06/02 04:45:02;;;;;;;1.77;1.30;;;;;;;14.08;81.17;96599.72;1775236;79;21046;-84
2022/06/02 04:47:42;;;;;;;1.87;1.30;;;;;;;14.16;81.41;96598.75;1707263;83;21026;-83
2022/06/02 04:50:44;;;;;;;1.92;1.30;;;;;;;14.22;80.64;96586.18;1699954;82;21106;-84
2022/06/02 04:53:21;;;;;;;1.60;1.30;;;;;;;14.28;80.85;96596.33;1758442;80;21015;-83
2022/06/02 04:56:01;;;;;;;2.05;1.30;;;;;;;14.31;80.62;96599.34;1780606;80;21698;-84
2022/06/02 04:58:43;;;;;;;3.40;1.42;;;;;;;14.35;81.47;96601.08;1782853;79;20978;-83
2022/06/02 05:01:26;;;;;;;2.92;1.92;;;;;;;14.38;81.75;96599.36;1770331;80;20987;-83
2022/06/02 05:04:31;;;;;;;1.85;1.20;;;;;;;14.40;81.26;96601.27;1776358;80;21460;-84
2022/06/02 05:07:34;;;;;;;1.95;1.30;;;;;;;14.48;80.53;96606.83;1780352;80;21051;-84
2022/06/02 05:10:22;;;;;;;2.17;1.25;;;;;;;14.53;80.26;96605.23;1784267;80;20916;-84
2022/06/02 05:13:03;;;;;;;6.33;2.17;;;;;;;14.61;80.70;96602.41;1783720;80;21007;-84
2022/06/02 05:16:07;;;;;;;1.77;1.02;;;;;;;14.68;80.74;96606.34;1788890;80;21039;-84
2022/06/02 05:18:50;;;;;;;1.98;1.32;;;;;;;14.75;81.11;96612.88;1762774;79;21455;-84
2022/06/02 05:21:27;;;;;;;2.80;1.10;;;;;;;14.83;80.98;96623.95;1787236;80;21029;-84
2022/06/02 05:24:32;;;;;;;1.32;1.20;;;;;;;14.90;81.13;96627.36;1782918;79;20960;-84
2022/06/02 05:27:16;;;;;;;2.10;1.27;;;;;;;14.94;80.42;96627.75;1759956;80;21403;-84
2022/06/02 05:30:18;;;;;;;1.52;1.37;;;;;;;14.97;80.91;96629.48;1777321;80;20991;-84
2022/06/02 05:32:59;;;;;;;1.90;1.10;;;;;;;15.01;81.40;96631.18;1779389;79;20967;-84
2022/06/02 05:35:39;;;;;;;1.30;1.10;;;;;;;15.00;81.21;96627.76;1773231;79;21454;-84
2022/06/02 05:38:25;;;;;;;1.40;1.30;;;;;;;15.08;80.85;96627.23;1787477;79;21019;-84
2022/06/02 05:41:18;;;;;;;3.87;1.50;;;;;;;15.20;81.12;96628.23;1757506;80;21406;-84
2022/06/02 05:44:07;;;;;;;1.42;1.30;;;;;;;15.33;81.53;96630.02;1778756;79;20983;-84
2022/06/02 05:47:09;;;;;;;1.30;0.95;;;;;;;15.44;80.84;96638.53;1753772;79;20980;-84
2022/06/02 05:49:43;;;;;;;8.10;1.42;;;;;;;15.52;80.03;96636.50;1758204;80;20960;-84
2022/06/02 05:52:22;;;;;;;1.98;1.10;;;;;;;15.64;80.86;96642.45;1766730;79;20948;-85
2022/06/02 05:55:13;;;;;;;3.00;1.22;;;;;;;15.71;81.17;96655.81;1776855;80;21009;-84
2022/06/02 05:58:14;;;;;;;1.87;1.00;;;;;;;15.81;80.87;96655.39;1779119;79;20962;-85
2022/06/02 06:01:03;;;;;;;1.52;0.90;;;;;;;15.93;80.58;96656.83;1780716;80;21039;-85
2022/06/02 06:03:54;;;;;;;3.65;1.25;;;;;;;16.05;80.54;96652.03;1767524;79;20930;-84
2022/06/02 06:07:01;;;;;;;2.02;1.30;;;;;;;16.16;81.02;96659.25;1779504;79;20980;-85
2022/06/02 06:10:09;;;;;;;2.02;0.90;;;;;;;16.21;79.26;96658.11;1789087;79;21974;-85
2022/06/02 06:12:49;;;;;;;3.30;1.17;;;;;;;16.33;79.95;96661.38;1775686;80;20971;-84
2022/06/02 06:15:38;;;;;;;5.08;1.20;;;;;;;16.42;79.33;96664.03;1786946;79;21366;-85
2022/06/02 06:18:22;;;;;;;2.95;0.90;;;;;;;16.51;79.48;96668.02;1778345;79;21067;-85
2022/06/02 06:21:10;;;;;;;2.72;0.90;;;;;;;16.54;79.29;96674.15;1784078;79;21014;-84
2022/06/02 06:24:11;;;;;;;3.55;1.40;;;;;;;16.64;80.11;96683.68;1769738;80;21397;-84
2022/06/02 06:27:00;;;;;;;3.60;1.40;;;;;;;16.67;79.38;96685.91;1762280;80;21406;-84
2022/06/02 06:30:03;;;;;;;2.20;1.40;;;;;;;16.76;78.80;96690.40;1772585;79;21003;-84
2022/06/02 06:33:12;;;;;;;2.50;1.55;;;;;;;16.87;78.17;96691.00;1774652;80;21369;-84
2022/06/02 06:36:09;;;;;;;2.92;1.60;;;;;;;17.07;77.39;96701.34;1778001;80;20986;-84
2022/06/02 06:38:56;;;;;;;3.83;1.72;;;;;;;17.20;76.29;96704.38;1786470;80;20985;-83
2022/06/02 06:41:36;;;;;;;2.75;1.77;;;;;;;17.28;75.58;96700.98;1787251;79;20960;-83
2022/06/02 06:44:09;;;;;;;3.33;1.80;;;;;;;17.40;75.86;96710.24;1780051;80;20991;-83
2022/06/02 06:46:43;;;;;;;3.17;1.77;;;;;;;17.49;73.32;96708.96;1765681;80;21015;-84
2022/06/02 06:49:46;;;;;;;3.10;2.30;;;;;;;17.55;73.92;96712.02;1762822;79;20928;-84
2022/06/02 06:52:30;;;;;;;2.45;1.60;;;;;;;17.66;73.29;96719.19;1765997;80;21063;-84
2022/06/02 06:55:22;;;;;;;2.27;1.95;;;;;;;17.74;73.31;96727.86;1774285;79;21358;-84
2022/06/02 06:58:15;;;;;;;4.62;2.65;;;;;;;17.83;72.58;96731.28;1772454;79;21041;-84
2022/06/02 07:00:49;;;;;;;3.55;2.27;;;;;;;17.91;73.18;96737.58;1782863;79;20937;-84
2022/06/02 07:03:38;;;;;;;3.05;2.60;;;;;;;17.98;71.58;96737.49;1775851;80;21038;-84
2022/06/02 07:06:15;;;;;;;2.77;2.15;;;;;;;18.04;72.24;96738.42;1774323;79;20996;-84
2022/06/02 07:09:05;;;;;;;3.20;1.80;;;;;;;18.09;72.36;96739.39;1781844;80;21332;-83
2022/06/02 07:14:38;;;;;;;1.22;1.00;;;;;;;17.92;66.98;96751.52;1787966;79;20976;-83
2022/06/02 07:17:29;;;;;;;1.52;0.98;;;;;;;17.76;69.07;96754.21;1757921;80;21066;-83
2022/06/02 07:20:22;;;;;;;1.92;1.42;;;;;;;17.73;69.56;96758.56;1771458;79;21005;-83
2022/06/02 07:23:13;;;;;;;1.75;0.80;;;;;;;17.88;69.00;96760.84;1758073;80;21462;-83
2022/06/02 07:26:11;;;;;;;2.65;1.80;;;;;;;17.88;69.26;96768.22;1776797;80;20935;-83
2022/06/02 07:29:10;;;;;;;3.00;1.55;;;;;;;17.88;68.07;96772.67;1756564;80;21047;-83
2022/06/02 07:32:26;;;;;;;4.80;3.72;;;;;;;17.82;69.17;96780.93;1772676;80;20959;-84
2022/06/02 07:35:20;;;;;;;4.33;2.40;;;;;;;17.72;69.20;96783.23;1737299;80;21039;-83
2022/06/02 07:38:03;;;;;;;6.40;5.78;;;;;;;17.72;69.34;96785.06;1758638;80;20953;-82
2022/06/02 07:41:11;;;;;;;9.85;7.45;;;;;;;17.67;69.80;96796.20;1758138;80;21339;-83
2022/06/02 07:43:57;;;;;;;8.73;6.72;;;;;;;17.59;69.42;96797.80;1762745;80;20964;-83
2022/06/02 07:46:46;;;;;;;7.15;6.17;;;;;;;17.54;69.18;96802.38;1770640;80;21339;-83
2022/06/02 07:49:39;;;;;;;3.05;2.80;;;;;;;17.54;69.47;96801.06;1788130;80;20972;-83
2022/06/02 07:52:19;;;;;;;3.37;1.87;;;;;;;17.52;70.07;96809.66;1766365;80;21432;-83
2022/06/02 07:54:57;;;;;;;4.97;2.92;;;;;;;17.48;69.46;96820.83;1746113;80;20992;-83
2022/06/02 07:57:57;;;;;;;2.22;2.00;;;;;;;17.51;69.39;96812.00;1778660;80;21343;-82
2022/06/02 08:00:27;;;;;;;5.17;2.80;;;;;;;17.74;68.91;96811.96;1758652;80;21357;-82
2022/06/02 08:03:29;;;;;;;3.20;2.85;;;;;;;17.88;68.62;96819.99;1778556;80;20944;-82
2022/06/02 08:06:03;;;;;;;3.02;2.67;;;;;;;17.87;68.30;96821.81;1701096;83;21010;-82
2022/06/02 08:08:46;;;;;;;5.30;3.77;;;;;;;17.74;67.59;96824.59;1742757;80;20955;-82
2022/06/02 08:11:46;;;;;;;5.10;3.05;;;;;;;17.72;67.93;96828.43;1764696;80;21048;-81
2022/06/02 08:14:35;;;;;;;4.53;2.70;;;;;;;17.66;67.99;96830.87;1777659;80;20952;-82
2022/06/02 08:17:10;;;;;;;7.55;4.85;;;;;;;17.61;67.67;96832.55;1748726;80;21034;-82
2022/06/02 08:19:44;;;;;;;8.15;5.72;;;;;;;17.80;68.52;96834.23;1740477;80;20978;-82
2022/06/02 08:22:14;;;;;;;9.13;5.47;;;;;;;17.81;67.73;96841.09;1754821;80;21014;-82
2022/06/02 08:25:13;;;;;;;4.42;3.45;;;;;;;18.04;67.49;96836.52;1777958;80;20948;-82
2022/06/02 08:28:04;;;;;;;5.00;3.40;;;;;;;18.35;67.95;96848.75;1763872;80;21106;-82
2022/06/02 08:31:07;;;;;;;4.78;3.05;;;;;;;18.63;67.33;96844.80;1756647;80;21016;-82
2022/06/02 08:33:58;;;;;;;6.62;3.95;;;;;;;18.75;66.49;96847.81;1758422;80;21230;-82
2022/06/02 08:36:30;;;;;;;5.40;3.25;;;;;;;18.91;65.95;96854.30;1762086;80;21067;-82
2022/06/02 08:39:05;;;;;;;;;;;;;;;19.02;66.12;96848.77;1780642;80;21018;-82
2022/06/02 08:42:16;;;;;;;3.83;2.90;;;;;;;18.78;66.19;96868.94;1777277;79;20085;-81
2022/06/02 08:45:09;;;;;;;3.52;3.00;;;;;;;18.45;65.65;96874.05;1769639;80;21066;-82
2022/06/02 08:48:10;;;;;;;3.30;2.80;;;;;;;18.05;65.12;96884.66;1771058;79;20958;-82
2022/06/02 08:51:13;;;;;;;8.75;5.15;;;;;;;17.77;64.85;96883.30;1786078;79;20948;-81
2022/06/02 08:54:17;;;;;;;10.23;5.50;;;;;;;17.63;65.72;96889.63;1759218;79;21366;-82
2022/06/02 08:56:57;;;;;;;11.70;6.15;;;;;;;17.62;66.44;96894.09;1770205;80;21134;-82
2022/06/02 08:59:51;;;;;;;4.78;3.83;;;;;;;17.78;66.56;96895.41;1767651;80;20964;-81
2022/06/02 09:02:42;;;;;;;7.03;4.53;;;;;;;17.85;66.27;96894.84;1788995;79;20955;-81
2022/06/02 09:05:33;;;;;;;4.25;3.85;;;;;;;18.07;66.43;96895.78;1772846;79;21003;-82
2022/06/02 09:08:36;;;;;;;5.15;4.65;;;;;;;18.20;66.24;96890.38;1783056;80;20995;-81
2022/06/02 09:11:16;;;;;;;6.97;4.78;;;;;;;18.33;67.16;96890.25;1767187;79;21012;-82
2022/06/02 09:14:13;;;;;;;6.37;5.45;;;;;;;18.61;66.22;96895.02;1718000;82;21011;-81
2022/06/02 09:17:06;;;;;;;10.53;6.62;;;;;;;18.79;66.26;96892.41;1752048;79;21035;-82
2022/06/02 09:19:39;;;;;;;14.43;10.15;;;;;;;18.87;66.05;96894.76;1740923;80;21041;-81
2022/06/02 09:22:33;;;;;;;7.67;6.83;;;;;;;18.93;65.10;96901.47;1739864;80;21480;-82
2022/06/02 09:25:24;;;;;;;8.43;6.72;;;;;;;19.09;64.84;96901.66;1780615;80;20935;-82
2022/06/02 09:28:04;;;;;;;7.00;6.40;;;;;;;19.02;64.68;96904.08;1765261;80;21003;-82
2022/06/02 09:31:12;;;;;;;7.12;6.42;;;;;;;19.31;65.07;96907.23;1764271;80;20975;-82
2022/06/02 09:34:09;;;;;;;6.33;5.72;;;;;;;19.30;64.23;96904.31;1777289;80;20973;-82
2022/06/02 09:37:06;;;;;;;7.83;7.15;;;;;;;19.50;64.72;96909.30;1784406;80;20982;-82
2022/06/02 09:40:01;;;;;;;8.88;7.97;;;;;;;19.43;63.95;96900.69;1743529;80;20964;-82
2022/06/02 09:43:22;;;;;;;9.45;8.55;;;;;;;19.40;64.15;96910.38;1787285;80;20952;-82
2022/06/02 09:46:21;;;;;;;9.70;8.88;;;;;;;19.30;63.35;96915.36;1784615;80;21031;-82
2022/06/02 09:49:10;;;;;;;8.58;7.67;;;;;;;19.04;63.96;96915.22;1769886;80;21045;-82
2022/06/02 09:52:05;;;;;;;9.50;8.70;;;;;;;18.87;64.78;96907.92;1787191;80;21174;-82
2022/06/02 09:55:07;;;;;;;9.10;8.30;;;;;;;18.93;63.72;96910.17;1752618;80;21037;-82
2022/06/02 09:57:57;;;;;;;9.23;8.40;;;;;;;19.22;64.09;96916.50;1770027;80;21023;-82
2022/06/02 10:01:01;;;;;;;8.08;7.30;;;;;;;19.54;63.53;96911.83;1789194;80;21047;-82
2022/06/02 10:03:55;;;;;;;9.50;8.63;;;;;;;19.72;63.06;96910.95;1782118;80;20997;-82
2022/06/02 10:06:46;;;;;;;7.95;7.22;;;;;;;19.83;63.16;96918.05;1790175;80;20980;-82
2022/06/02 10:09:32;;;;;;;9.00;8.20;;;;;;;19.95;61.49;96911.48;1760430;80;21002;-83
2022/06/02 10:15:37;;;;;;;7.80;7.03;;;;;;;20.02;60.48;96910.88;1759120;80;20995;-82
2022/06/02 10:19:00;;;;;;;7.80;7.00;;;;;;;19.92;60.61;96918.02;1772800;79;21042;-82
2022/06/02 10:22:07;;;;;;;7.03;6.00;;;;;;;20.01;60.44;96911.88;1773912;80;21031;-82
2022/06/02 10:24:57;;;;;;;7.22;6.50;;;;;;;20.21;61.68;96912.38;1778392;80;21026;-82
2022/06/02 10:27:55;;;;;;;6.58;5.97;;;;;;;19.93;60.70;96924.10;1783653;79;20989;-82
2022/06/02 10:30:46;;;;;;;6.95;4.95;;;;;;;19.99;60.44;96924.50;1789350;80;21074;-82
2022/06/02 10:33:41;;;;;;;5.42;4.78;;;;;;;20.01;60.02;96925.06;1778936;79;20983;-82
2022/06/02 10:36:35;;;;;;;4.83;4.42;;;;;;;20.18;60.12;96930.50;1690808;80;21056;-82
2022/06/02 10:39:28;;;;;;;5.37;4.87;;;;;;;20.17;56.86;96927.55;1782064;80;21332;-82
2022/06/02 10:42:09;;;;;;;6.28;5.78;;;;;;;20.12;58.66;96921.65;1778360;80;20956;-82
2022/06/02 10:45:10;;;;;;;5.95;5.35;;;;;;;20.31;58.71;96926.30;1778153;79;21011;-82
2022/06/02 10:48:05;;;;;;;4.83;3.85;;;;;;;20.33;57.68;96927.66;1788868;80;21043;-82
2022/06/02 10:50:54;;;;;;;4.90;4.08;;;;;;;20.44;56.41;96929.25;1778397;80;21026;-82
2022/06/02 10:53:50;;;;;;;5.65;5.25;;;;;;;20.60;58.51;96927.23;1757197;81;21053;-82
2022/06/02 10:56:40;;;;;;;6.22;5.62;;;;;;;20.69;58.02;96928.49;1759849;81;21045;-82
2022/06/02 10:59:59;;;;;;;5.45;5.03;;;;;;;20.89;57.89;96932.06;1770853;80;20945;-82
2022/06/02 11:02:57;;;;;;;6.05;4.62;;;;;;;20.98;56.87;96930.13;1780458;80;20975;-82
2022/06/02 11:06:02;;;;;;;6.37;4.90;;;;;;;21.00;56.47;96922.00;1779893;80;21121;-82
2022/06/02 11:08:59;;;;;;;7.42;3.70;;;;;;;20.84;57.56;96929.33;1774100;80;20998;-81
2022/06/02 11:12:02;;;;;;;5.22;4.45;;;;;;;20.68;58.15;96929.53;1786432;80;21031;-81
2022/06/02 11:14:48;;;;;;;4.85;4.45;;;;;;;20.52;56.88;96931.56;1784968;80;21376;-82
2022/06/02 11:17:57;;;;;;;7.42;4.50;;;;;;;20.37;56.74;96928.03;1788710;79;21017;-83
2022/06/02 11:20:50;;;;;;;4.17;3.75;;;;;;;20.17;54.39;96932.83;1774296;80;20954;-82
2022/06/02 11:23:40;;;;;;;5.10;3.77;;;;;;;20.19;55.55;96920.23;1780642;80;21021;-82
2022/06/02 11:26:29;;;;;;;4.33;3.92;;;;;;;20.30;55.83;96930.77;1774208;80;20992;-82
2022/06/02 11:29:33;;;;;;;4.00;3.60;;;;;;;20.25;55.07;96931.18;1773774;80;21360;-82
2022/06/02 11:32:13;;;;;;;5.20;3.92;;;;;;;20.21;54.73;96938.76;1786348;80;21004;-82
2022/06/02 11:35:11;;;;;;;4.78;4.37;;;;;;;20.25;55.24;96931.98;1774044;80;21556;-82
2022/06/02 11:38:09;;;;;;;5.33;4.12;;;;;;;20.38;54.66;96926.48;1784517;80;21360;-82
2022/06/02 11:41:26;;;;;;;5.12;4.20;;;;;;;20.20;55.98;96933.71;1767531;80;20983;-82
2022/06/02 11:44:15;;;;;;;4.72;4.22;;;;;;;20.29;55.92;96926.52;1782903;80;20985;-82
2022/06/02 11:47:12;;;;;;;4.30;3.95;;;;;;;20.34;55.69;96929.81;1773570;80;20989;-82
2022/06/02 11:49:58;;;;;;;4.95;4.55;;;;;;;20.06;54.64;96933.12;1788545;80;20971;-82
2022/06/02 11:52:48;;;;;;;4.05;3.47;;;;;;;19.78;54.52;96947.75;1778881;80;21035;-82
2022/06/02 11:55:46;;;;;;;3.70;3.40;;;;;;;19.89;55.04;96938.78;1774708;80;21014;-82
2022/06/02 11:58:43;;;;;;;4.67;4.17;;;;;;;19.91;55.19;96950.70;1787489;80;20948;-82
2022/06/02 12:01:21;;;;;;;4.85;3.83;;;;;;;19.90;55.36;96950.93;1775121;80;21458;-82
2022/06/02 12:04:32;;;;;;;4.65;3.40;;;;;;;19.83;54.35;96947.06;1775270;80;20983;-82
2022/06/02 12:07:20;;;;;;;3.98;3.33;;;;;;;19.76;55.20;96938.46;1779026;80;21051;-82
2022/06/02 12:10:00;;;;;;;4.03;3.00;;;;;;;19.88;57.89;96939.81;1779983;80;20976;-82
2022/06/02 12:12:55;;;;;;;6.40;3.30;;;;;;;20.29;59.12;96945.52;1778865;80;21385;-82
2022/06/02 12:15:51;;;;;;;4.20;3.80;;;;;;;20.53;56.70;96943.20;1761459;80;21079;-82
2022/06/02 12:18:40;;;;;;;3.95;2.90;;;;;;;20.41;55.17;96952.13;1783012;80;21031;-82
2022/06/02 12:21:18;;;;;;;3.05;2.62;;;;;;;20.52;55.25;96946.08;1777713;80;21419;-82
2022/06/02 12:24:26;;;;;;;4.03;3.00;;;;;;;20.74;55.40;96944.95;1784210;80;21064;-82
2022/06/02 12:27:23;;;;;;;4.00;2.90;;;;;;;20.70;52.45;96953.06;1782256;80;21039;-82
2022/06/02 12:30:19;;;;;;;2.42;2.22;;;;;;;20.70;52.40;96945.94;1741633;81;21357;-82
2022/06/02 12:33:02;;;;;;;3.00;2.80;;;;;;;20.88;52.58;96951.07;1768680;81;20973;-83
2022/06/02 12:35:50;;;;;;;2.80;2.42;;;;;;;21.06;51.49;96946.14;1772637;80;21357;-82
2022/06/02 12:38:43;;;;;;;3.62;2.85;;;;;;;21.18;51.74;96950.88;1776706;79;20939;-83
2022/06/02 12:41:36;;;;;;;3.17;2.20;;;;;;;21.38;50.72;96950.49;1781991;80;20978;-82
2022/06/02 12:44:22;;;;;;;2.90;2.55;;;;;;;21.46;50.06;96945.33;1764390;80;21045;-82
2022/06/02 12:47:25;;;;;;;2.60;2.35;;;;;;;21.57;50.58;96944.48;1777299;80;20978;-81
2022/06/02 12:50:28;;;;;;;2.42;1.82;;;;;;;21.70;50.38;96944.72;1775751;80;20966;-81
2022/06/02 12:52:59;;;;;;;3.60;2.70;;;;;;;21.81;50.21;96946.50;1775187;80;20987;-81
2022/06/02 12:55:44;;;;;;;;;;;;;;;21.93;48.86;96941.12;1780289;80;21046;-82
2022/06/02 12:58:32;;;;;;;3.30;2.87;;;;;;;21.96;47.84;96945.40;1771143;80;20152;-81
2022/06/02 13:01:36;;;;;;;4.83;4.15;;;;;;;21.90;48.19;96942.92;1772893;80;20995;-81
2022/06/02 13:04:34;;;;;;;6.95;6.25;;;;;;;21.96;47.99;96934.02;1770959;80;20943;-81
2022/06/02 13:07:53;;;;;;;4.20;3.80;;;;;;;22.01;48.98;96939.41;1766562;80;21337;-82
2022/06/02 13:10:41;;;;;;;2.58;2.27;;;;;;;22.15;48.72;96936.23;1776440;80;20978;-81
2022/06/02 13:13:22;;;;;;;4.60;2.60;;;;;;;22.26;48.02;96938.49;1772831;80;20952;-81
2022/06/02 13:16:25;;;;;;;4.12;2.58;;;;;;;22.23;46.72;96931.56;1776816;80;21294;-82
2022/06/02 13:19:43;;;;;;;4.10;3.70;;;;;;;22.13;46.80;96933.03;1777170;80;21110;-82
2022/06/02 13:22:37;;;;;;;7.08;5.37;;;;;;;22.18;47.63;96934.95;1775810;80;21007;-82
2022/06/02 13:25:47;;;;;;;5.97;3.72;;;;;;;22.25;48.24;96932.13;1778552;80;21168;-81
2022/06/02 13:28:43;;;;;;;4.47;4.05;;;;;;;22.36;47.65;96932.03;1771792;80;20904;-82
2022/06/02 13:31:50;;;;;;;2.72;2.50;;;;;;;22.42;47.62;96932.38;1786890;80;21469;-82
2022/06/02 13:35:11;;;;;;;3.20;2.58;;;;;;;22.43;46.11;96927.88;1783742;80;21372;-82
2022/06/02 13:38:00;;;;;;;3.80;2.77;;;;;;;22.40;46.66;96931.02;1770987;80;21422;-82
2022/06/02 13:40:35;;;;;;;6.17;4.33;;;;;;;22.36;45.51;96932.56;1780884;80;21313;-82
2022/06/02 13:43:16;;;;;;;2.80;2.55;;;;;;;22.33;46.75;96934.38;1756747;80;20948;-82